Adrian, Oregon
Current Conditions -  °F | °C
As of 6:59 AM on Tuesday 27 Jan 2015 (Local Time) from KONO Reporting Station
Haze Haze  
Wind Chill: 29°   Ceiling: 600
Heat Index: 29°   Visibility: 3mi
Dew Point: 27°   Wind: 0mph
Humidity: 92%   Direction: NA
Pressure: 30.15"   Gusts: NA
Location:  43.74°N, 117.07°W
Report Text: KONO 271359Z AUTO 00000KT 3SM BR OVC006 M02/M03 A3015 RMK AO2 T10171028
Loading
Personal Weather Stations






























Interactive Weather Map New forecast layout! Learn more

10-Day Weather Forecast

Advertisements
Track Severe Weather on mobile